sensor_id;sensor_type;location;lat;lon;timestamp;pressure;altitude;pressure_sealevel;temperature;humidity
65897;BME280;52677;50.898;10.854;2022-08-02T00:00:23;98844.38;;;17.12;84.93
65897;BME280;52677;50.898;10.854;2022-08-02T00:02:23;98857.22;;;17.06;85.46
65897;BME280;52677;50.898;10.854;2022-08-02T00:04:24;98856.84;;;17.01;86.02
65897;BME280;52677;50.898;10.854;2022-08-02T00:06:24;98860.09;;;16.96;85.60
65897;BME280;52677;50.898;10.854;2022-08-02T00:08:24;98856.16;;;16.86;85.97
65897;BME280;52677;50.898;10.854;2022-08-02T00:10:25;98846.63;;;16.83;85.31
65897;BME280;52677;50.898;10.854;2022-08-02T00:12:25;98839.47;;;16.79;85.44
65897;BME280;52677;50.898;10.854;2022-08-02T00:14:26;98847.47;;;16.77;86.21
65897;BME280;52677;50.898;10.854;2022-08-02T00:16:26;98844.31;;;16.68;86.17
65897;BME280;52677;50.898;10.854;2022-08-02T00:18:27;98842.72;;;16.63;86.39
65897;BME280;52677;50.898;10.854;2022-08-02T00:20:28;98836.72;;;16.68;84.81
65897;BME280;52677;50.898;10.854;2022-08-02T00:22:28;98838.31;;;16.73;84.58
65897;BME280;52677;50.898;10.854;2022-08-02T00:24:28;98847.13;;;16.64;86.76
65897;BME280;52677;50.898;10.854;2022-08-02T00:26:29;98838.81;;;16.57;88.30
65897;BME280;52677;50.898;10.854;2022-08-02T00:28:29;98843.63;;;16.49;90.04
65897;BME280;52677;50.898;10.854;2022-08-02T00:30:29;98844.06;;;16.44;89.99
65897;BME280;52677;50.898;10.854;2022-08-02T00:32:30;98842.88;;;16.42;88.45
65897;BME280;52677;50.898;10.854;2022-08-02T00:34:30;98832.16;;;16.33;88.95
65897;BME280;52677;50.898;10.854;2022-08-02T00:36:30;98838.16;;;16.28;89.40
65897;BME280;52677;50.898;10.854;2022-08-02T00:38:31;98839.00;;;16.25;88.54
65897;BME280;52677;50.898;10.854;2022-08-02T00:40:31;98843.78;;;16.24;88.49
65897;BME280;52677;50.898;10.854;2022-08-02T00:42:32;98841.03;;;16.17;89.06
65897;BME280;52677;50.898;10.854;2022-08-02T00:44:32;98839.84;;;16.11;89.89
65897;BME280;52677;50.898;10.854;2022-08-02T00:46:32;98849.84;;;16.05;90.52
65897;BME280;52677;50.898;10.854;2022-08-02T00:48:33;98837.94;;;15.97;92.13
65897;BME280;52677;50.898;10.854;2022-08-02T00:50:34;98847.53;;;15.93;90.73
65897;BME280;52677;50.898;10.854;2022-08-02T00:52:35;98843.13;;;15.88;90.93
65897;BME280;52677;50.898;10.854;2022-08-02T00:54:35;98851.50;;;15.88;90.37
65897;BME280;52677;50.898;10.854;2022-08-02T00:56:36;98847.16;;;15.84;91.37
65897;BME280;52677;50.898;10.854;2022-08-02T00:58:36;98845.59;;;15.76;93.09
65897;BME280;52677;50.898;10.854;2022-08-02T01:00:37;98848.41;;;15.68;94.00
65897;BME280;52677;50.898;10.854;2022-08-02T01:02:37;98846.81;;;15.60;94.97
65897;BME280;52677;50.898;10.854;2022-08-02T01:04:38;98848.84;;;15.49;96.63
65897;BME280;52677;50.898;10.854;2022-08-02T01:06:40;98844.47;;;15.48;96.01
65897;BME280;52677;50.898;10.854;2022-08-02T01:08:40;98850.81;;;15.45;95.68
65897;BME280;52677;50.898;10.854;2022-08-02T01:10:41;98852.41;;;15.39;96.35
65897;BME280;52677;50.898;10.854;2022-08-02T01:12:41;98847.66;;;15.36;96.42
65897;BME280;52677;50.898;10.854;2022-08-02T01:14:43;98856.03;;;15.32;96.70
65897;BME280;52677;50.898;10.854;2022-08-02T01:16:49;98852.06;;;15.33;94.98
65897;BME280;52677;50.898;10.854;2022-08-02T01:18:53;98849.25;;;15.37;94.09
65897;BME280;52677;50.898;10.854;2022-08-02T01:21:26;98850.03;;;15.41;93.48
65897;BME280;52677;50.898;10.854;2022-08-02T01:23:44;98851.63;;;15.38;92.79
65897;BME280;52677;50.898;10.854;2022-08-02T01:30:35;98841.34;;;15.07;96.20
65897;BME280;52677;50.898;10.854;2022-08-02T01:32:43;98842.53;;;15.02;96.39
65897;BME280;52677;50.898;10.854;2022-08-02T01:34:53;98844.09;;;14.96;97.31
65897;BME280;52677;50.898;10.854;2022-08-02T01:37:04;98854.88;;;14.91;97.28
65897;BME280;52677;50.898;10.854;2022-08-02T01:39:09;98844.13;;;14.85;97.86
65897;BME280;52677;50.898;10.854;2022-08-02T01:41:15;98848.09;;;14.84;97.80
65897;BME280;52677;50.898;10.854;2022-08-02T01:43:18;98850.09;;;14.84;96.95
65897;BME280;52677;50.898;10.854;2022-08-02T01:45:24;98848.09;;;14.88;95.21
65897;BME280;52677;50.898;10.854;2022-08-02T01:47:28;98844.91;;;14.97;94.06
65897;BME280;52677;50.898;10.854;2022-08-02T01:49:31;98837.34;;;14.94;94.41
65897;BME280;52677;50.898;10.854;2022-08-02T01:51:33;98842.53;;;14.92;94.28
65897;BME280;52677;50.898;10.854;2022-08-02T01:53:52;98850.09;;;14.91;92.63
65897;BME280;52677;50.898;10.854;2022-08-02T01:55:54;98844.09;;;14.89;92.72
65897;BME280;52677;50.898;10.854;2022-08-02T01:57:59;98848.88;;;14.88;92.40
65897;BME280;52677;50.898;10.854;2022-08-02T02:00:04;98844.53;;;14.84;93.52
65897;BME280;52677;50.898;10.854;2022-08-02T02:02:07;98850.47;;;14.79;93.31
65897;BME280;52677;50.898;10.854;2022-08-02T02:04:08;98858.81;;;14.72;93.41
65897;BME280;52677;50.898;10.854;2022-08-02T02:06:10;98850.06;;;14.52;96.47
65897;BME280;52677;50.898;10.854;2022-08-02T02:08:11;98843.22;;;14.39;97.35
65897;BME280;52677;50.898;10.854;2022-08-02T02:10:14;98852.78;;;14.34;97.77
65897;BME280;52677;50.898;10.854;2022-08-02T02:12:17;98845.19;;;14.31;96.98
65897;BME280;52677;50.898;10.854;2022-08-02T02:14:18;98855.13;;;14.28;97.37
65897;BME280;52677;50.898;10.854;2022-08-02T02:16:21;98858.72;;;14.29;97.05
65897;BME280;52677;50.898;10.854;2022-08-02T02:18:26;98853.53;;;14.31;96.25
65897;BME280;52677;50.898;10.854;2022-08-02T02:20:28;98851.56;;;14.28;96.82
65897;BME280;52677;50.898;10.854;2022-08-02T02:22:29;98849.97;;;14.27;97.29
65897;BME280;52677;50.898;10.854;2022-08-02T02:24:30;98861.91;;;14.31;97.00
65897;BME280;52677;50.898;10.854;2022-08-02T02:26:31;98859.13;;;14.27;96.61
65897;BME280;52677;50.898;10.854;2022-08-02T02:28:34;98857.94;;;14.25;97.60
65897;BME280;52677;50.898;10.854;2022-08-02T02:30:39;98867.44;;;14.20;98.20
65897;BME280;52677;50.898;10.854;2022-08-02T02:32:41;98866.66;;;14.16;99.20
65897;BME280;52677;50.898;10.854;2022-08-02T02:34:45;98864.66;;;14.17;99.54
65897;BME280;52677;50.898;10.854;2022-08-02T02:36:50;98857.91;;;14.18;98.84
65897;BME280;52677;50.898;10.854;2022-08-02T02:38:51;98865.44;;;14.21;98.94
65897;BME280;52677;50.898;10.854;2022-08-02T02:40:54;98868.25;;;14.17;99.64
65897;BME280;52677;50.898;10.854;2022-08-02T02:42:58;98861.44;;;14.11;99.94
65897;BME280;52677;50.898;10.854;2022-08-02T02:45:02;98861.06;;;14.09;100.00
65897;BME280;52677;50.898;10.854;2022-08-02T02:47:03;98873.78;;;14.14;99.77
65897;BME280;52677;50.898;10.854;2022-08-02T02:49:07;98869.41;;;14.13;100.00
65897;BME280;52677;50.898;10.854;2022-08-02T02:51:09;98863.44;;;14.11;100.00
65897;BME280;52677;50.898;10.854;2022-08-02T02:53:10;98872.56;;;14.15;100.00
65897;BME280;52677;50.898;10.854;2022-08-02T02:55:13;98870.22;;;14.20;100.00
65897;BME280;52677;50.898;10.854;2022-08-02T02:57:14;98878.56;;;14.17;100.00
65897;BME280;52677;50.898;10.854;2022-08-02T02:59:15;98881.75;;;14.15;100.00
65897;BME280;52677;50.898;10.854;2022-08-02T03:01:16;98872.19;;;14.13;100.00
65897;BME280;52677;50.898;10.854;2022-08-02T03:03:33;98879.31;;;14.06;100.00
65897;BME280;52677;50.898;10.854;2022-08-02T03:05:33;98884.50;;;14.08;100.00
65897;BME280;52677;50.898;10.854;2022-08-02T03:07:34;98877.75;;;14.09;100.00
65897;BME280;52677;50.898;10.854;2022-08-02T03:09:35;98881.72;;;14.12;100.00
65897;BME280;52677;50.898;10.854;2022-08-02T03:11:37;98876.59;;;14.17;100.00
65897;BME280;52677;50.898;10.854;2022-08-02T03:13:38;98879.38;;;14.17;100.00
65897;BME280;52677;50.898;10.854;2022-08-02T03:15:39;98880.16;;;14.18;100.00
65897;BME280;52677;50.898;10.854;2022-08-02T03:17:41;98876.19;;;14.22;100.00
65897;BME280;52677;50.898;10.854;2022-08-02T03:19:42;98884.16;;;14.24;100.00
65897;BME280;52677;50.898;10.854;2022-08-02T03:21:44;98884.97;;;14.24;100.00
65897;BME280;52677;50.898;10.854;2022-08-02T03:23:47;98877.38;;;14.21;100.00
65897;BME280;52677;50.898;10.854;2022-08-02T03:25:47;98885.34;;;14.16;100.00
65897;BME280;52677;50.898;10.854;2022-08-02T03:27:48;98890.50;;;14.17;100.00
65897;BME280;52677;50.898;10.854;2022-08-02T03:29:48;98876.59;;;14.17;100.00
65897;BME280;52677;50.898;10.854;2022-08-02T03:31:48;98886.50;;;14.15;100.00
65897;BME280;52677;50.898;10.854;2022-08-02T03:33:49;98882.50;;;14.12;100.00
65897;BME280;52677;50.898;10.854;2022-08-02T03:35:52;98879.75;;;14.16;100.00
65897;BME280;52677;50.898;10.854;2022-08-02T03:37:54;98884.91;;;14.14;100.00
65897;BME280;52677;50.898;10.854;2022-08-02T03:39:57;98882.91;;;14.14;100.00
65897;BME280;52677;50.898;10.854;2022-08-02T03:41:58;98877.75;;;14.09;100.00
65897;BME280;52677;50.898;10.854;2022-08-02T03:43:59;98881.28;;;14.06;100.00
65897;BME280;52677;50.898;10.854;2022-08-02T03:46:02;98879.31;;;13.99;100.00
65897;BME280;52677;50.898;10.854;2022-08-02T03:48:04;98886.44;;;13.97;100.00
65897;BME280;52677;50.898;10.854;2022-08-02T03:50:06;98876.09;;;13.94;100.00
65897;BME280;52677;50.898;10.854;2022-08-02T03:52:07;98883.25;;;13.91;100.00
65897;BME280;52677;50.898;10.854;2022-08-02T03:54:08;98888.38;;;13.89;100.00
65897;BME280;52677;50.898;10.854;2022-08-02T03:56:09;98892.78;;;13.90;100.00
65897;BME280;52677;50.898;10.854;2022-08-02T03:58:21;98891.94;;;13.90;100.00
65897;BME280;52677;50.898;10.854;2022-08-02T04:00:22;98897.91;;;13.88;100.00
65897;BME280;52677;50.898;10.854;2022-08-02T04:02:23;98890.75;;;13.87;100.00
65897;BME280;52677;50.898;10.854;2022-08-02T04:04:23;98889.16;;;13.90;100.00
65897;BME280;52677;50.898;10.854;2022-08-02T04:06:23;98895.97;;;13.92;100.00
65897;BME280;52677;50.898;10.854;2022-08-02T04:08:24;98888.81;;;13.91;100.00
65897;BME280;52677;50.898;10.854;2022-08-02T04:10:25;98881.66;;;13.90;100.00
65897;BME280;52677;50.898;10.854;2022-08-02T04:12:25;98886.41;;;13.93;100.00
65897;BME280;52677;50.898;10.854;2022-08-02T04:14:26;98886.41;;;13.93;100.00
65897;BME280;52677;50.898;10.854;2022-08-02T04:19:06;98884.78;;;13.85;100.00
65897;BME280;52677;50.898;10.854;2022-08-02T04:21:06;98891.16;;;13.82;100.00
65897;BME280;52677;50.898;10.854;2022-08-02T04:23:10;98898.69;;;13.85;100.00
65897;BME280;52677;50.898;10.854;2022-08-02T04:25:15;98889.16;;;13.90;100.00
65897;BME280;52677;50.898;10.854;2022-08-02T04:27:16;98893.97;;;13.96;100.00
65897;BME280;52677;50.898;10.854;2022-08-02T04:29:18;98888.41;;;13.96;100.00
65897;BME280;52677;50.898;10.854;2022-08-02T04:31:18;98899.56;;;14.00;100.00
65897;BME280;52677;50.898;10.854;2022-08-02T04:33:19;98896.78;;;14.00;100.00
65897;BME280;52677;50.898;10.854;2022-08-02T04:35:20;98898.38;;;14.04;100.00
65897;BME280;52677;50.898;10.854;2022-08-02T04:37:21;98897.63;;;14.11;99.54
65897;BME280;52677;50.898;10.854;2022-08-02T04:39:21;98896.47;;;14.19;98.37
65897;BME280;52677;50.898;10.854;2022-08-02T04:41:22;98901.66;;;14.24;98.99
65897;BME280;52677;50.898;10.854;2022-08-02T04:43:23;98909.22;;;14.24;98.91
65897;BME280;52677;50.898;10.854;2022-08-02T04:45:24;98909.19;;;14.20;99.61
65897;BME280;52677;50.898;10.854;2022-08-02T04:47:25;98911.19;;;14.23;100.00
65897;BME280;52677;50.898;10.854;2022-08-02T04:49:26;98915.19;;;14.26;98.06
65897;BME280;52677;50.898;10.854;2022-08-02T04:51:26;98910.41;;;14.30;98.21
65897;BME280;52677;50.898;10.854;2022-08-02T04:53:27;98910.41;;;14.30;98.46
65897;BME280;52677;50.898;10.854;2022-08-02T04:55:27;98914.41;;;14.32;99.46
65897;BME280;52677;50.898;10.854;2022-08-02T04:57:28;98922.38;;;14.34;99.72
65897;BME280;52677;50.898;10.854;2022-08-02T04:59:47;98911.22;;;14.38;99.61
65897;BME280;52677;50.898;10.854;2022-08-02T05:01:48;98912.81;;;14.39;99.69
65897;BME280;52677;50.898;10.854;2022-08-02T05:03:48;98914.84;;;14.42;99.55
65897;BME280;52677;50.898;10.854;2022-08-02T05:05:48;98917.22;;;14.43;99.24
65897;BME280;52677;50.898;10.854;2022-08-02T05:07:49;98912.09;;;14.49;99.32
65897;BME280;52677;50.898;10.854;2022-08-02T05:09:49;98909.31;;;14.56;98.87
65897;BME280;52677;50.898;10.854;2022-08-02T05:11:50;98906.94;;;14.61;97.80
65897;BME280;52677;50.898;10.854;2022-08-02T05:13:50;98907.38;;;14.67;98.78
65897;BME280;52677;50.898;10.854;2022-08-02T05:15:50;98915.34;;;14.76;99.66
65897;BME280;52677;50.898;10.854;2022-08-02T05:17:51;98918.91;;;14.80;100.00
65897;BME280;52677;50.898;10.854;2022-08-02T05:19:51;98916.13;;;14.87;98.47
65897;BME280;52677;50.898;10.854;2022-08-02T05:21:51;98918.16;;;14.94;97.86
65897;BME280;52677;50.898;10.854;2022-08-02T05:23:52;98914.16;;;15.05;96.79
65897;BME280;52677;50.898;10.854;2022-08-02T05:25:52;98915.38;;;15.18;96.72
65897;BME280;52677;50.898;10.854;2022-08-02T05:27:52;98906.63;;;15.31;95.99
65897;BME280;52677;50.898;10.854;2022-08-02T05:29:53;98923.75;;;15.40;94.80
65897;BME280;52677;50.898;10.854;2022-08-02T05:31:53;98911.75;;;15.46;94.64
65897;BME280;52677;50.898;10.854;2022-08-02T05:33:54;98914.94;;;15.52;93.24
65897;BME280;52677;50.898;10.854;2022-08-02T05:35:54;98908.56;;;15.55;93.61
65897;BME280;52677;50.898;10.854;2022-08-02T05:37:55;98916.13;;;15.55;95.39
65897;BME280;52677;50.898;10.854;2022-08-02T05:39:55;98916.13;;;15.55;95.51
65897;BME280;52677;50.898;10.854;2022-08-02T05:41:55;98915.34;;;15.54;95.88
65897;BME280;52677;50.898;10.854;2022-08-02T05:43:56;98921.72;;;15.58;94.99
65897;BME280;52677;50.898;10.854;2022-08-02T05:45:57;98920.16;;;15.61;93.11
65897;BME280;52677;50.898;10.854;2022-08-02T05:47:57;98927.31;;;15.69;92.09
65897;BME280;52677;50.898;10.854;2022-08-02T05:49:57;98925.69;;;15.79;92.54
65897;BME280;52677;50.898;10.854;2022-08-02T05:52:18;98937.22;;;15.88;93.85
65897;BME280;52677;50.898;10.854;2022-08-02T05:54:35;98947.19;;;15.89;95.33
65897;BME280;52677;50.898;10.854;2022-08-02T05:57:10;98929.63;;;15.88;95.80
65897;BME280;52677;50.898;10.854;2022-08-02T05:59:23;98938.41;;;15.87;95.57
65897;BME280;52677;50.898;10.854;2022-08-02T06:01:31;98939.22;;;15.91;95.43
65897;BME280;52677;50.898;10.854;2022-08-02T06:03:38;98951.16;;;15.98;95.84
65897;BME280;52677;50.898;10.854;2022-08-02T06:05:50;98951.53;;;16.08;95.13
65897;BME280;52677;50.898;10.854;2022-08-02T06:07:54;98937.94;;;16.13;94.45
65897;BME280;52677;50.898;10.854;2022-08-02T06:09:55;98939.13;;;16.19;94.37
65897;BME280;52677;50.898;10.854;2022-08-02T06:11:58;98931.13;;;16.21;94.51
65897;BME280;52677;50.898;10.854;2022-08-02T06:13:59;98929.50;;;16.27;93.41
65897;BME280;52677;50.898;10.854;2022-08-02T06:16:02;98937.44;;;16.36;92.63
65897;BME280;52677;50.898;10.854;2022-08-02T06:18:03;98936.59;;;16.46;91.89
65897;BME280;52677;50.898;10.854;2022-08-02T06:20:04;98935.38;;;16.58;90.46
65897;BME280;52677;50.898;10.854;2022-08-02T06:22:04;98927.75;;;16.62;90.32
65897;BME280;52677;50.898;10.854;2022-08-02T06:24:17;98929.31;;;16.70;89.97
65897;BME280;52677;50.898;10.854;2022-08-02T06:26:19;98936.09;;;16.76;90.11
65897;BME280;52677;50.898;10.854;2022-08-02T06:28:22;98932.47;;;16.79;90.61
65897;BME280;52677;50.898;10.854;2022-08-02T06:30:23;98934.00;;;16.88;90.94
65897;BME280;52677;50.898;10.854;2022-08-02T06:32:25;98923.19;;;16.93;90.29
65897;BME280;52677;50.898;10.854;2022-08-02T06:34:25;98925.53;;;17.02;90.87
65897;BME280;52677;50.898;10.854;2022-08-02T06:36:32;98924.69;;;17.08;89.77
65897;BME280;52677;50.898;10.854;2022-08-02T06:38:42;98921.41;;;17.17;88.80
65897;BME280;52677;50.898;10.854;2022-08-02T06:40:47;98925.34;;;17.27;88.17
65897;BME280;52677;50.898;10.854;2022-08-02T06:42:57;98921.66;;;17.37;88.30
65897;BME280;52677;50.898;10.854;2022-08-02T06:45:01;98918.38;;;17.46;88.09
65897;BME280;52677;50.898;10.854;2022-08-02T06:47:02;98911.19;;;17.45;87.42
65897;BME280;52677;50.898;10.854;2022-08-02T06:49:03;98916.72;;;17.52;87.21
65897;BME280;52677;50.898;10.854;2022-08-02T06:51:04;98919.03;;;17.64;87.30
65897;BME280;52677;50.898;10.854;2022-08-02T06:53:05;98919.34;;;17.69;86.07
65897;BME280;52677;50.898;10.854;2022-08-02T06:55:06;98911.69;;;17.77;85.50
65897;BME280;52677;50.898;10.854;2022-08-02T06:57:07;98923.63;;;17.85;84.29
65897;BME280;52677;50.898;10.854;2022-08-02T06:59:08;98906.31;;;17.93;82.72
65897;BME280;52677;50.898;10.854;2022-08-02T07:01:08;98913.34;;;18.09;82.43
65897;BME280;52677;50.898;10.854;2022-08-02T07:03:09;98909.22;;;18.20;83.95
65897;BME280;52677;50.898;10.854;2022-08-02T07:05:09;98911.91;;;18.28;83.27
65897;BME280;52677;50.898;10.854;2022-08-02T07:07:10;98908.72;;;18.29;82.27
65897;BME280;52677;50.898;10.854;2022-08-02T07:09:10;98913.13;;;18.27;81.56
65897;BME280;52677;50.898;10.854;2022-08-02T07:11:10;98919.88;;;18.33;81.77
65897;BME280;52677;50.898;10.854;2022-08-02T07:13:11;98914.63;;;18.35;80.99
65897;BME280;52677;50.898;10.854;2022-08-02T07:15:11;98912.19;;;18.37;80.97
65897;BME280;52677;50.898;10.854;2022-08-02T07:17:12;98908.16;;;18.41;81.81
65897;BME280;52677;50.898;10.854;2022-08-02T07:19:12;98902.91;;;18.43;81.40
65897;BME280;52677;50.898;10.854;2022-08-02T07:21:13;98904.84;;;18.50;81.19
65897;BME280;52677;50.898;10.854;2022-08-02T07:23:13;98914.00;;;18.54;80.12
65897;BME280;52677;50.898;10.854;2022-08-02T07:25:14;98910.34;;;18.57;79.07
65897;BME280;52677;50.898;10.854;2022-08-02T07:27:14;98910.66;;;18.63;78.57
65897;BME280;52677;50.898;10.854;2022-08-02T07:29:14;98904.25;;;18.66;78.67
65897;BME280;52677;50.898;10.854;2022-08-02T07:31:15;98904.16;;;18.73;77.72
65897;BME280;52677;50.898;10.854;2022-08-02T07:33:15;98907.22;;;18.82;78.37
65897;BME280;52677;50.898;10.854;2022-08-02T07:35:15;98892.72;;;18.87;78.10
65897;BME280;52677;50.898;10.854;2022-08-02T07:37:17;98886.63;;;18.92;77.71
65897;BME280;52677;50.898;10.854;2022-08-02T07:39:17;98890.19;;;18.96;76.98
65897;BME280;52677;50.898;10.854;2022-08-02T07:41:17;98884.97;;;18.95;76.89
65897;BME280;52677;50.898;10.854;2022-08-02T07:43:18;98885.72;;;18.99;75.82
65897;BME280;52677;50.898;10.854;2022-08-02T07:45:19;98879.16;;;19.09;77.11
65897;BME280;52677;50.898;10.854;2022-08-02T07:47:20;98884.97;;;19.22;76.80
65897;BME280;52677;50.898;10.854;2022-08-02T07:49:20;98874.34;;;19.33;76.12
65897;BME280;52677;50.898;10.854;2022-08-02T07:51:21;98877.72;;;19.44;76.49
65897;BME280;52677;50.898;10.854;2022-08-02T07:53:21;98882.88;;;19.49;74.21
65897;BME280;52677;50.898;10.854;2022-08-02T07:55:21;98873.59;;;19.52;74.40
65897;BME280;52677;50.898;10.854;2022-08-02T07:57:22;98877.50;;;19.58;74.03
65897;BME280;52677;50.898;10.854;2022-08-02T07:59:22;98876.78;;;19.54;73.00
65897;BME280;52677;50.898;10.854;2022-08-02T08:01:22;98877.25;;;19.49;73.52
65897;BME280;52677;50.898;10.854;2022-08-02T08:03:23;98877.56;;;19.55;74.49
65897;BME280;52677;50.898;10.854;2022-08-02T08:05:23;98876.25;;;19.63;73.70
65897;BME280;52677;50.898;10.854;2022-08-02T08:07:24;98872.22;;;19.64;73.16
65897;BME280;52677;50.898;10.854;2022-08-02T08:09:24;98876.91;;;19.71;72.92
65897;BME280;52677;50.898;10.854;2022-08-02T08:11:25;98869.63;;;19.73;72.71
65897;BME280;52677;50.898;10.854;2022-08-02T08:13:25;98867.25;;;19.72;72.15
65897;BME280;52677;50.898;10.854;2022-08-02T08:15:26;98876.16;;;19.67;72.51
65897;BME280;52677;50.898;10.854;2022-08-02T08:17:26;98866.91;;;19.70;72.47
65897;BME280;52677;50.898;10.854;2022-08-02T08:19:26;98865.69;;;19.71;72.25
65897;BME280;52677;50.898;10.854;2022-08-02T08:21:27;98866.25;;;19.82;71.19
65897;BME280;52677;50.898;10.854;2022-08-02T08:23:28;98868.91;;;19.89;70.87
65897;BME280;52677;50.898;10.854;2022-08-02T08:25:29;98868.78;;;19.96;71.84
65897;BME280;52677;50.898;10.854;2022-08-02T08:27:29;98870.09;;;20.11;70.99
65897;BME280;52677;50.898;10.854;2022-08-02T08:29:29;98861.06;;;20.20;69.10
65897;BME280;52677;50.898;10.854;2022-08-02T08:31:30;98864.13;;;20.26;68.84
65897;BME280;52677;50.898;10.854;2022-08-02T08:33:30;98863.34;;;20.25;68.91
65897;BME280;52677;50.898;10.854;2022-08-02T08:35:30;98859.25;;;20.30;67.17
65897;BME280;52677;50.898;10.854;2022-08-02T08:37:35;98858.56;;;20.42;66.12
65897;BME280;52677;50.898;10.854;2022-08-02T08:39:35;98855.19;;;20.51;66.56
65897;BME280;52677;50.898;10.854;2022-08-02T08:41:36;98862.53;;;20.64;65.65
65897;BME280;52677;50.898;10.854;2022-08-02T08:43:37;98857.09;;;20.73;65.02
65897;BME280;52677;50.898;10.854;2022-08-02T08:45:37;98855.78;;;20.78;65.54
65897;BME280;52677;50.898;10.854;2022-08-02T08:47:40;98853.31;;;20.80;65.06
65897;BME280;52677;50.898;10.854;2022-08-02T08:49:43;98858.84;;;20.84;63.66
65897;BME280;52677;50.898;10.854;2022-08-02T08:51:45;98848.75;;;20.86;62.38
65897;BME280;52677;50.898;10.854;2022-08-02T08:53:47;98844.09;;;20.96;63.32
65897;BME280;52677;50.898;10.854;2022-08-02T08:55:49;98840.22;;;21.06;63.08
65897;BME280;52677;50.898;10.854;2022-08-02T08:57:52;98840.41;;;21.15;63.50
65897;BME280;52677;50.898;10.854;2022-08-02T08:59:53;98834.16;;;21.24;62.34
65897;BME280;52677;50.898;10.854;2022-08-02T09:01:54;98827.06;;;21.36;62.92
65897;BME280;52677;50.898;10.854;2022-08-02T09:03:56;98823.97;;;21.30;61.12
65897;BME280;52677;50.898;10.854;2022-08-02T09:05:57;98830.38;;;21.30;61.30
65897;BME280;52677;50.898;10.854;2022-08-02T09:07:58;98831.34;;;21.40;61.31
65897;BME280;52677;50.898;10.854;2022-08-02T09:09:58;98825.72;;;21.40;61.17
65897;BME280;52677;50.898;10.854;2022-08-02T09:12:15;98826.31;;;21.48;61.82
65897;BME280;52677;50.898;10.854;2022-08-02T09:14:26;98836.59;;;21.54;62.23
65897;BME280;52677;50.898;10.854;2022-08-02T09:16:34;98833.47;;;21.65;61.88
65897;BME280;52677;50.898;10.854;2022-08-02T09:18:37;98839.44;;;21.67;60.27
65897;BME280;52677;50.898;10.854;2022-08-02T09:20:53;98846.03;;;21.77;61.25
65897;BME280;52677;50.898;10.854;2022-08-02T09:23:08;98837.38;;;21.84;60.04
65897;BME280;52677;50.898;10.854;2022-08-02T09:25:14;98834.72;;;21.93;60.22
65897;BME280;52677;50.898;10.854;2022-08-02T09:27:20;98843.50;;;21.95;59.14
65897;BME280;52677;50.898;10.854;2022-08-02T09:29:22;98833.03;;;21.96;58.41
65897;BME280;52677;50.898;10.854;2022-08-02T09:31:23;98845.59;;;22.07;58.73
65897;BME280;52677;50.898;10.854;2022-08-02T09:33:25;98836.88;;;22.02;58.54
65897;BME280;52677;50.898;10.854;2022-08-02T09:35:34;98841.53;;;22.08;58.04
65897;BME280;52677;50.898;10.854;2022-08-02T09:37:35;98843.00;;;22.13;57.35
65897;BME280;52677;50.898;10.854;2022-08-02T09:39:43;98844.06;;;22.19;58.31
65897;BME280;52677;50.898;10.854;2022-08-02T09:41:44;98833.56;;;22.32;57.50
65897;BME280;52677;50.898;10.854;2022-08-02T09:43:45;98840.69;;;22.37;56.86
65897;BME280;52677;50.898;10.854;2022-08-02T09:45:45;98838.44;;;22.45;55.77
65897;BME280;52677;50.898;10.854;2022-08-02T09:47:48;98843.63;;;22.59;55.77
65897;BME280;52677;50.898;10.854;2022-08-02T09:49:48;98844.56;;;22.68;54.13
65897;BME280;52677;50.898;10.854;2022-08-02T09:51:51;98830.09;;;22.54;53.03
65897;BME280;52677;50.898;10.854;2022-08-02T09:54:03;98826.38;;;22.57;53.53
65897;BME280;52677;50.898;10.854;2022-08-02T09:56:04;98821.22;;;22.68;53.84
65897;BME280;52677;50.898;10.854;2022-08-02T09:58:20;98827.63;;;22.81;53.82
65897;BME280;52677;50.898;10.854;2022-08-02T10:00:21;98820.53;;;22.89;53.37
65897;BME280;52677;50.898;10.854;2022-08-02T10:02:21;98818.94;;;22.88;52.90
65897;BME280;52677;50.898;10.854;2022-08-02T10:04:23;98819.50;;;22.96;53.46
65897;BME280;52677;50.898;10.854;2022-08-02T10:06:24;98815.16;;;23.17;52.40
65897;BME280;52677;50.898;10.854;2022-08-02T10:08:25;98817.31;;;23.25;52.26
65897;BME280;52677;50.898;10.854;2022-08-02T10:10:26;98807.13;;;23.28;52.43
65897;BME280;52677;50.898;10.854;2022-08-02T10:12:26;98805.66;;;23.36;51.81
65897;BME280;52677;50.898;10.854;2022-08-02T10:14:27;98801.81;;;23.30;51.21
65897;BME280;52677;50.898;10.854;2022-08-02T10:16:27;98791.91;;;23.25;52.87
65897;BME280;52677;50.898;10.854;2022-08-02T10:18:28;98795.94;;;23.37;53.41
65897;BME280;52677;50.898;10.854;2022-08-02T10:20:29;98804.88;;;23.58;53.22
65897;BME280;52677;50.898;10.854;2022-08-02T10:22:36;98801.03;;;23.64;50.57
65897;BME280;52677;50.898;10.854;2022-08-02T10:24:39;98803.84;;;23.64;50.25
65897;BME280;52677;50.898;10.854;2022-08-02T10:26:42;98801.19;;;23.61;50.19
65897;BME280;52677;50.898;10.854;2022-08-02T10:28:48;98796.63;;;23.63;50.97
65897;BME280;52677;50.898;10.854;2022-08-02T10:30:49;98790.28;;;23.72;51.36
65897;BME280;52677;50.898;10.854;2022-08-02T10:32:50;98788.22;;;23.94;49.91
65897;BME280;52677;50.898;10.854;2022-08-02T10:34:57;98786.41;;;24.00;49.77
65897;BME280;52677;50.898;10.854;2022-08-02T10:37:02;98793.63;;;24.01;48.26
65897;BME280;52677;50.898;10.854;2022-08-02T10:39:03;98781.66;;;23.97;48.24
65897;BME280;52677;50.898;10.854;2022-08-02T10:41:04;98781.97;;;23.99;49.20
65897;BME280;52677;50.898;10.854;2022-08-02T10:43:04;98786.41;;;24.00;47.77
65897;BME280;52677;50.898;10.854;2022-08-02T10:45:09;98777.72;;;23.95;48.05